createdAt,value
2018-12-06T00:00:30.886Z,14.97
2018-12-06T00:03:20.552Z,14.90
2018-12-06T00:06:10.264Z,14.20
2018-12-06T00:08:59.584Z,14.03
2018-12-06T00:11:49.471Z,15.17
2018-12-06T00:14:38.712Z,14.50
2018-12-06T00:17:28.048Z,14.40
2018-12-06T00:20:17.424Z,15.70
2018-12-06T00:22:48.364Z,16.40
2018-12-06T00:25:37.739Z,15.13
2018-12-06T00:28:08.320Z,15.00
2018-12-06T00:30:57.589Z,14.40
2018-12-06T00:33:46.884Z,14.40
2018-12-06T00:36:36.522Z,13.70
2018-12-06T00:39:26.137Z,15.40
2018-12-06T00:42:15.432Z,14.87
2018-12-06T00:45:25.033Z,15.03
2018-12-06T00:47:55.556Z,14.30
2018-12-06T00:50:45.351Z,15.20
2018-12-06T00:53:35.048Z,14.77
2018-12-06T00:56:24.818Z,11.80
2018-12-06T00:59:14.468Z,15.63
2018-12-06T01:05:01.437Z,14.50
2018-12-06T01:07:50.812Z,14.40
2018-12-06T01:10:40.088Z,13.80
2018-12-06T01:13:29.348Z,15.03
2018-12-06T01:16:19.096Z,15.10
2018-12-06T01:19:08.455Z,14.43
2018-12-06T01:21:58.145Z,15.37
2018-12-06T01:24:47.432Z,15.30
2018-12-06T01:27:36.693Z,16.27
2018-12-06T01:30:26.182Z,16.03
2018-12-06T01:33:15.488Z,16.57
2018-12-06T01:36:05.252Z,16.03
2018-12-06T01:38:55.044Z,16.20
2018-12-06T01:42:03.692Z,16.37
2018-12-06T01:45:13.180Z,16.27
2018-12-06T01:48:02.819Z,17.13
2018-12-06T01:50:33.292Z,16.13
2018-12-06T01:53:22.596Z,16.13
2018-12-06T01:56:12.275Z,16.90
2018-12-06T01:59:01.835Z,16.73
2018-12-06T02:01:51.611Z,17.23
2018-12-06T02:04:40.920Z,15.90
2018-12-06T02:07:30.584Z,16.23
2018-12-06T02:10:19.847Z,17.23
2018-12-06T02:13:09.420Z,16.80
2018-12-06T02:15:59.060Z,17.30
2018-12-06T02:18:48.323Z,18.40
2018-12-06T02:21:37.993Z,18.97
2018-12-06T02:24:27.260Z,16.70
2018-12-06T02:27:16.504Z,16.63
2018-12-06T02:30:06.203Z,16.60
2018-12-06T02:32:37.055Z,17.00
2018-12-06T02:35:26.430Z,17.87
2018-12-06T02:38:15.688Z,16.37
2018-12-06T02:41:04.968Z,16.90
2018-12-06T02:43:53.762Z,15.87
2018-12-06T02:46:43.029Z,15.43
2018-12-06T02:49:32.308Z,17.00
2018-12-06T02:52:21.845Z,17.43
2018-12-06T02:55:11.052Z,17.30
2018-12-06T02:58:00.848Z,17.77
2018-12-06T03:00:50.155Z,17.67
2018-12-06T03:03:39.369Z,19.03
2018-12-06T03:06:29.014Z,17.80
2018-12-06T03:09:18.409Z,17.33
2018-12-06T03:12:07.997Z,17.13
2018-12-06T03:14:57.387Z,16.27
2018-12-06T03:17:46.723Z,17.87
2018-12-06T03:20:36.011Z,14.83
2018-12-06T03:26:53.941Z,15.10
2018-12-06T03:29:43.631Z,17.10
2018-12-06T03:32:33.344Z,15.87
2018-12-06T03:35:22.605Z,17.10
2018-12-06T03:38:12.594Z,16.27
2018-12-06T03:41:01.901Z,15.37
2018-12-06T03:43:51.278Z,15.20
2018-12-06T03:46:40.646Z,17.30
2018-12-06T03:49:30.672Z,16.80
2018-12-06T03:52:19.977Z,14.57
2018-12-06T03:55:09.396Z,14.87
2018-12-06T03:57:58.958Z,15.30
2018-12-06T04:00:48.315Z,17.13
2018-12-06T04:03:38.216Z,15.80
2018-12-06T04:06:28.062Z,15.53
2018-12-06T04:09:17.316Z,15.83
2018-12-06T04:12:07.065Z,15.30
2018-12-06T04:14:56.324Z,16.57
2018-12-06T04:17:46.143Z,15.67
2018-12-06T04:20:35.508Z,17.67
2018-12-06T04:26:33.367Z,14.57
2018-12-06T04:29:22.590Z,12.90
2018-12-06T04:32:11.862Z,14.33
2018-12-06T04:35:01.489Z,14.20
2018-12-06T04:37:50.822Z,15.20
2018-12-06T04:40:40.504Z,12.13
2018-12-06T04:43:30.065Z,12.50
2018-12-06T04:46:19.829Z,13.93
2018-12-06T04:49:09.153Z,13.17
2018-12-06T04:51:58.808Z,10.43
2018-12-06T04:54:48.620Z,10.90
2018-12-06T04:57:37.871Z,11.90
2018-12-06T05:00:27.154Z,11.10
2018-12-06T05:03:16.813Z,10.80
2018-12-06T05:06:06.200Z,13.43
2018-12-06T05:08:55.538Z,11.50
2018-12-06T05:11:45.137Z,11.97
2018-12-06T05:14:16.310Z,13.17
2018-12-06T05:17:06.025Z,11.30
2018-12-06T05:19:55.293Z,11.40
2018-12-06T05:22:45.078Z,10.33
2018-12-06T05:25:34.756Z,11.53
2018-12-06T05:28:24.494Z,11.17
2018-12-06T05:31:14.115Z,10.33
2018-12-06T05:34:03.795Z,11.00
2018-12-06T05:36:53.427Z,11.07
2018-12-06T05:39:42.724Z,11.63
2018-12-06T05:42:31.972Z,10.90
2018-12-06T05:45:22.011Z,12.90
2018-12-06T05:48:11.329Z,13.70
2018-12-06T05:51:00.661Z,12.63
2018-12-06T05:53:50.337Z,12.03
2018-12-06T05:56:40.056Z,11.97
2018-12-06T05:59:29.774Z,12.53
2018-12-06T06:02:19.428Z,9.97
2018-12-06T06:05:08.826Z,11.77
2018-12-06T06:07:58.446Z,11.20
2018-12-06T06:10:47.724Z,9.90
2018-12-06T06:13:37.009Z,8.63
2018-12-06T06:16:26.558Z,11.03
2018-12-06T06:19:15.802Z,11.10
2018-12-06T06:22:05.124Z,9.80
2018-12-06T06:24:54.368Z,12.90
2018-12-06T06:27:26.300Z,17.20
2018-12-06T06:30:16.376Z,31.20
2018-12-06T06:33:08.818Z,20.63
2018-12-06T06:38:33.996Z,15.80
2018-12-06T06:41:23.265Z,15.67
2018-12-06T06:44:12.544Z,14.73
2018-12-06T06:47:02.286Z,12.10
2018-12-06T06:49:52.034Z,11.60
2018-12-06T06:52:41.775Z,11.43
2018-12-06T06:55:31.518Z,11.60
2018-12-06T06:58:20.938Z,11.10
2018-12-06T07:01:11.216Z,10.70
2018-12-06T07:04:00.843Z,10.97
2018-12-06T07:06:50.658Z,11.23
2018-12-06T07:09:40.984Z,11.20
2018-12-06T07:12:31.063Z,12.20
2018-12-06T07:15:21.017Z,9.90
2018-12-06T07:18:10.402Z,11.00
2018-12-06T07:21:00.112Z,10.97
2018-12-06T07:23:49.536Z,10.50
2018-12-06T07:26:39.812Z,11.40
2018-12-06T07:29:29.308Z,13.40
2018-12-06T07:32:18.801Z,11.80
2018-12-06T07:35:08.738Z,11.93
2018-12-06T07:37:58.720Z,10.73
2018-12-06T07:40:29.672Z,10.00
2018-12-06T07:43:20.573Z,10.00
2018-12-06T07:46:11.849Z,10.77
2018-12-06T07:49:01.257Z,8.77
2018-12-06T07:51:51.394Z,10.97
2018-12-06T07:54:41.525Z,8.03
2018-12-06T07:57:12.548Z,9.70
2018-12-06T08:00:02.443Z,9.57
2018-12-06T08:02:53.710Z,9.03
2018-12-06T08:05:44.445Z,8.67
2018-12-06T08:08:34.342Z,7.10
2018-12-06T08:11:24.639Z,8.30
2018-12-06T08:13:56.133Z,8.10
2018-12-06T08:17:12.887Z,7.87
2018-12-06T08:19:39.950Z,7.20
2018-12-06T08:22:29.841Z,7.47
2018-12-06T08:25:19.972Z,6.63
2018-12-06T08:28:10.169Z,5.80
2018-12-06T08:31:00.773Z,6.17
2018-12-06T08:33:50.855Z,5.60
2018-12-06T08:36:40.811Z,6.10
2018-12-06T08:39:30.702Z,5.27
2018-12-06T08:42:20.072Z,5.77
2018-12-06T08:45:09.669Z,5.80
2018-12-06T08:47:59.617Z,5.60
2018-12-06T08:50:49.178Z,5.13
2018-12-06T08:53:39.727Z,5.43
2018-12-06T08:56:29.624Z,4.60
2018-12-06T08:59:19.545Z,4.77
2018-12-06T09:02:09.588Z,4.10
2018-12-06T09:04:59.722Z,4.80
2018-12-06T09:07:49.650Z,4.40
2018-12-06T09:10:40.664Z,4.27
2018-12-06T09:13:30.917Z,4.60
2018-12-06T09:16:20.493Z,4.57
2018-12-06T09:19:10.033Z,4.60
2018-12-06T09:22:00.003Z,4.43
2018-12-06T09:24:49.640Z,4.63
2018-12-06T09:27:39.238Z,4.00
2018-12-06T09:30:28.729Z,4.33
2018-12-06T09:33:18.264Z,4.40
2018-12-06T09:36:07.964Z,4.10
2018-12-06T09:38:58.292Z,4.27
2018-12-06T09:41:47.674Z,4.03
2018-12-06T09:44:37.225Z,4.87
2018-12-06T09:50:27.489Z,4.03
2018-12-06T09:53:17.253Z,3.87
2018-12-06T09:56:06.881Z,3.77
2018-12-06T09:58:56.860Z,4.13
2018-12-06T10:01:46.616Z,5.00
2018-12-06T10:07:46.821Z,4.33
2018-12-06T10:10:36.628Z,4.83
2018-12-06T10:13:27.630Z,4.53
2018-12-06T10:16:17.491Z,4.33
2018-12-06T10:19:07.406Z,5.27
2018-12-06T10:21:59.469Z,5.10
2018-12-06T10:24:49.376Z,4.47
2018-12-06T10:27:39.167Z,4.63
2018-12-06T10:30:28.783Z,4.50
2018-12-06T10:33:10.648Z,4.43
2018-12-06T10:35:52.346Z,5.43
2018-12-06T10:38:35.145Z,5.17
2018-12-06T10:41:16.552Z,5.50
2018-12-06T10:43:58.617Z,4.97
2018-12-06T10:46:41.099Z,4.87
2018-12-06T10:49:22.987Z,5.37
2018-12-06T10:52:04.596Z,5.30
2018-12-06T10:54:46.180Z,5.10
2018-12-06T10:57:28.559Z,5.60
2018-12-06T11:00:28.829Z,5.70
2018-12-06T11:06:20.265Z,5.13
2018-12-06T11:09:03.578Z,6.13
2018-12-06T11:11:45.479Z,5.63
2018-12-06T11:14:27.571Z,5.83
2018-12-06T11:17:10.749Z,6.47
2018-12-06T11:19:53.931Z,5.63
2018-12-06T11:22:36.586Z,5.87
2018-12-06T11:25:20.671Z,5.83
2018-12-06T11:28:04.061Z,6.47
2018-12-06T11:30:46.538Z,5.93
2018-12-06T11:33:40.139Z,6.60
2018-12-06T11:39:10.818Z,5.60
2018-12-06T11:42:09.282Z,6.00
2018-12-06T11:47:53.894Z,6.00
2018-12-06T11:51:27.733Z,5.10
2018-12-06T11:53:35.860Z,5.80
2018-12-06T11:56:25.882Z,5.17
2018-12-06T11:59:15.901Z,5.20
2018-12-06T12:02:09.912Z,5.20
2018-12-06T12:08:09.331Z,4.90
2018-12-06T12:11:24.903Z,4.97
2018-12-06T12:13:53.243Z,5.10
2018-12-06T12:16:43.341Z,4.87
2018-12-06T12:19:14.552Z,5.07
2018-12-06T12:21:45.910Z,5.30
2018-12-06T12:24:35.462Z,5.07
2018-12-06T12:30:20.975Z,4.80
2018-12-06T12:33:10.676Z,5.10
2018-12-06T12:36:00.266Z,4.37
2018-12-06T12:38:49.808Z,4.70
2018-12-06T12:41:39.659Z,4.20
2018-12-06T12:44:55.446Z,4.10
2018-12-06T12:47:23.256Z,3.80
2018-12-06T12:50:13.192Z,3.67
2018-12-06T12:56:00.445Z,3.53
2018-12-06T12:58:50.404Z,2.50
2018-12-06T13:02:00.378Z,2.93
2018-12-06T13:04:49.989Z,2.90
2018-12-06T13:07:39.546Z,3.27
2018-12-06T13:10:29.631Z,2.87
2018-12-06T13:13:19.240Z,2.87
2018-12-06T13:16:09.116Z,2.43
2018-12-06T13:18:58.735Z,2.73
2018-12-06T13:21:50.875Z,2.40
2018-12-06T13:24:41.225Z,2.77
2018-12-06T13:27:31.269Z,2.67
2018-12-06T13:30:20.908Z,2.43
2018-12-06T13:33:10.593Z,2.93
2018-12-06T13:36:00.043Z,2.53
2018-12-06T13:38:49.676Z,2.73
2018-12-06T13:41:41.508Z,2.07
2018-12-06T13:44:31.586Z,2.23
2018-12-06T13:47:21.785Z,1.60
2018-12-06T13:50:11.265Z,2.40
2018-12-06T13:53:00.862Z,2.20
2018-12-06T13:55:51.249Z,2.20
2018-12-06T13:58:41.697Z,1.77
2018-12-06T14:04:39.028Z,1.83
2018-12-06T14:07:29.207Z,1.63
2018-12-06T14:10:19.541Z,1.83
2018-12-06T14:13:09.892Z,2.03
2018-12-06T14:15:41.740Z,2.20
2018-12-06T14:18:31.792Z,1.70
2018-12-06T14:21:20.897Z,2.00
2018-12-06T14:24:09.527Z,2.03
2018-12-06T14:26:59.163Z,1.83
2018-12-06T14:29:49.118Z,1.77
2018-12-06T14:32:39.163Z,2.10
2018-12-06T14:35:28.911Z,1.97
2018-12-06T14:38:19.417Z,1.80
2018-12-06T14:41:08.977Z,2.53
2018-12-06T14:43:59.136Z,2.60
2018-12-06T14:46:49.151Z,2.70
2018-12-06T14:52:49.698Z,2.50
2018-12-06T14:55:39.649Z,1.90
2018-12-06T14:58:30.069Z,2.43
2018-12-06T15:01:20.621Z,2.43
2018-12-06T15:04:10.569Z,2.60
2018-12-06T15:07:19.732Z,2.10
2018-12-06T15:09:55.800Z,2.10
2018-12-06T15:12:45.360Z,2.17
2018-12-06T15:15:34.898Z,2.70
2018-12-06T15:18:24.651Z,3.00
2018-12-06T15:21:13.960Z,2.13
2018-12-06T15:24:03.715Z,2.33
2018-12-06T15:26:53.900Z,4.50
2018-12-06T15:29:44.198Z,2.97
2018-12-06T15:32:34.181Z,4.00
2018-12-06T15:35:31.555Z,2.90
2018-12-06T15:38:21.449Z,2.00
2018-12-06T15:44:22.061Z,2.30
2018-12-06T15:47:12.242Z,2.33
2018-12-06T15:52:59.388Z,2.10
2018-12-06T15:55:49.559Z,1.83
2018-12-06T15:58:39.282Z,3.10
2018-12-06T16:01:29.096Z,2.23
2018-12-06T16:04:18.841Z,2.77
2018-12-06T16:07:09.471Z,2.30
2018-12-06T16:09:59.504Z,2.57
2018-12-06T16:12:49.453Z,3.50
2018-12-06T16:16:00.890Z,34.47
2018-12-06T16:18:31.600Z,5.77
2018-12-06T16:21:21.372Z,4.50
2018-12-06T16:24:11.173Z,3.90
2018-12-06T16:27:00.819Z,3.10
2018-12-06T16:29:51.611Z,4.70
2018-12-06T16:32:42.953Z,2.60
2018-12-06T16:35:32.609Z,3.50
2018-12-06T16:38:22.245Z,2.50
2018-12-06T16:41:11.700Z,3.30
2018-12-06T16:44:01.242Z,3.80
2018-12-06T16:46:51.538Z,2.90
2018-12-06T16:49:42.466Z,2.87
2018-12-06T16:55:46.685Z,3.33
2018-12-06T16:58:35.893Z,2.97
2018-12-06T17:01:25.832Z,2.80
2018-12-06T17:04:15.487Z,2.27
2018-12-06T17:07:05.515Z,2.73
2018-12-06T17:09:55.134Z,3.53
2018-12-06T17:12:26.304Z,3.30
2018-12-06T17:15:16.084Z,2.70
2018-12-06T17:18:05.995Z,2.70
2018-12-06T17:20:56.144Z,2.77
2018-12-06T17:23:45.950Z,3.00
2018-12-06T17:26:35.707Z,2.27
2018-12-06T17:29:25.061Z,3.30
2018-12-06T17:32:15.002Z,2.73
2018-12-06T17:35:04.973Z,3.90
2018-12-06T17:40:49.777Z,3.00
2018-12-06T17:43:39.508Z,2.73
2018-12-06T17:46:29.149Z,3.10
2018-12-06T17:49:18.396Z,3.03
2018-12-06T17:52:08.349Z,2.80
2018-12-06T17:54:58.369Z,3.40
2018-12-06T17:57:48.841Z,2.57
2018-12-06T18:00:38.302Z,2.90
2018-12-06T18:03:30.991Z,3.10
2018-12-06T18:06:20.956Z,2.87
2018-12-06T18:09:10.892Z,3.10
2018-12-06T18:11:41.990Z,3.10
2018-12-06T18:14:31.834Z,2.70
2018-12-06T18:17:22.329Z,2.97
2018-12-06T18:20:12.435Z,2.80
2018-12-06T18:23:02.852Z,3.20
2018-12-06T18:25:52.894Z,2.40
2018-12-06T18:28:42.240Z,4.53
2018-12-06T18:31:31.945Z,2.77
2018-12-06T18:34:24.963Z,3.07
2018-12-06T18:37:15.264Z,3.57
2018-12-06T18:40:05.616Z,3.10
2018-12-06T18:42:55.492Z,3.73
2018-12-06T18:45:45.969Z,3.23
2018-12-06T18:48:35.500Z,3.53
2018-12-06T18:51:25.312Z,3.40
2018-12-06T18:54:15.029Z,3.20
2018-12-06T18:57:04.720Z,3.43
2018-12-06T18:59:54.426Z,3.27
2018-12-06T19:03:04.520Z,3.77
2018-12-06T19:11:40.197Z,4.60
2018-12-06T19:14:29.734Z,3.87
2018-12-06T19:17:19.700Z,4.80
2018-12-06T19:20:09.287Z,4.43
2018-12-06T19:22:58.896Z,3.90
2018-12-06T19:25:49.178Z,3.10
2018-12-06T19:28:38.890Z,3.60
2018-12-06T19:31:28.896Z,3.70
2018-12-06T19:34:18.680Z,3.43
2018-12-06T19:37:08.874Z,3.90
2018-12-06T19:40:00.869Z,3.60
2018-12-06T19:42:51.092Z,3.20
2018-12-06T19:45:41.038Z,3.27
2018-12-06T19:48:30.500Z,3.80
2018-12-06T19:51:20.405Z,3.70
2018-12-06T19:54:10.428Z,3.80
2018-12-06T20:00:28.689Z,4.30
2018-12-06T20:03:18.763Z,6.60
2018-12-06T20:06:08.244Z,4.47
2018-12-06T20:08:57.788Z,5.67
2018-12-06T20:11:47.792Z,5.67
2018-12-06T20:14:37.268Z,5.70
2018-12-06T20:17:26.985Z,5.97
2018-12-06T20:20:23.376Z,4.80
2018-12-06T20:23:08.545Z,5.00
2018-12-06T20:25:58.533Z,4.87
2018-12-06T20:28:47.920Z,4.80
2018-12-06T20:31:37.925Z,3.80
2018-12-06T20:34:27.529Z,3.30
2018-12-06T20:37:17.538Z,3.20
2018-12-06T20:40:07.651Z,3.00
2018-12-06T20:42:57.241Z,3.47
2018-12-06T20:45:47.188Z,3.10
2018-12-06T20:48:37.182Z,3.20
2018-12-06T20:51:27.207Z,2.90
2018-12-06T20:54:16.752Z,2.77
2018-12-06T20:57:06.645Z,2.30
2018-12-06T20:59:56.276Z,2.90
2018-12-06T21:02:45.809Z,3.27
2018-12-06T21:05:35.954Z,2.30
2018-12-06T21:08:25.650Z,2.33
2018-12-06T21:11:15.329Z,2.57
2018-12-06T21:14:05.645Z,2.00
2018-12-06T21:16:55.031Z,2.07
2018-12-06T21:19:44.670Z,1.97
2018-12-06T21:22:15.417Z,1.80
2018-12-06T21:25:04.773Z,2.00
2018-12-06T21:27:54.389Z,2.47
2018-12-06T21:30:44.288Z,2.13
2018-12-06T21:33:33.977Z,2.00
2018-12-06T21:36:23.304Z,2.47
2018-12-06T21:39:15.471Z,1.50
2018-12-06T21:42:05.533Z,1.73
2018-12-06T21:44:55.256Z,1.40
2018-12-06T21:47:45.300Z,1.73
2018-12-06T21:50:35.390Z,1.77
2018-12-06T21:53:45.153Z,1.73
2018-12-06T21:56:50.371Z,1.50
2018-12-06T21:59:26.365Z,1.43
2018-12-06T22:02:34.880Z,1.67
2018-12-06T22:11:32.026Z,1.53
2018-12-06T22:14:21.311Z,1.47
2018-12-06T22:17:10.570Z,1.67
2018-12-06T22:20:00.300Z,2.00
2018-12-06T22:22:42.087Z,1.77
2018-12-06T22:25:24.519Z,1.77
2018-12-06T22:27:55.401Z,1.77
2018-12-06T22:30:44.715Z,1.30
2018-12-06T22:33:33.977Z,1.30
2018-12-06T22:36:23.639Z,1.30
2018-12-06T22:39:12.880Z,1.40
2018-12-06T22:42:02.152Z,1.50
2018-12-06T22:48:06.649Z,1.53
2018-12-06T22:50:55.903Z,1.57
2018-12-06T22:53:45.212Z,1.30
2018-12-06T22:56:34.889Z,1.30
2018-12-06T22:59:24.685Z,1.70
2018-12-06T23:02:14.331Z,1.50
2018-12-06T23:05:03.620Z,1.20
2018-12-06T23:07:53.321Z,1.47
2018-12-06T23:10:42.615Z,1.63
2018-12-06T23:13:31.855Z,1.50
2018-12-06T23:16:21.631Z,1.30
2018-12-06T23:19:17.943Z,1.37
2018-12-06T23:22:07.212Z,1.20
2018-12-06T23:24:56.868Z,1.60
2018-12-06T23:27:46.565Z,1.40
2018-12-06T23:30:35.844Z,1.30
2018-12-06T23:33:31.806Z,1.40
2018-12-06T23:38:45.104Z,1.27
2018-12-06T23:41:34.411Z,1.70
2018-12-06T23:44:23.665Z,1.50
2018-12-06T23:47:13.382Z,1.60
2018-12-06T23:50:02.702Z,1.50
2018-12-06T23:52:51.912Z,1.20
2018-12-06T23:55:41.198Z,1.27
2018-12-06T23:58:30.453Z,1.40
